Nestor — V2FB3 — position and weather

sailwx.info

Track history (hours):
 
Tides and Currents Weather Stations Pressure Air Temp Water Temp Dewpoint Dewpoint Depression Visibility Wind Speed Wind Dir Waves Ship Positions

Nestor

Last reported at 2014-Sep-19 06:24 UTC. Time now 2014-Sep-19 21:59 UTC.
Position N 43°24' E 003°43'.

Length 88 m; draft 3.8 m.

Type: Ship. MMSI: 305620000.

Date/timePositionNaut miles runAvg speedWind from/ knotsBaromVisibWave heightAir tempDewpointWater temp
2014-Sep-19 06:24N 43°24' E 003°43'4 3.6
2014-Sep-19 05:09N 43°22' E 003°48'51 7.5
2014-Sep-18 22:23N 42°31' E 003°43'10 7.9
2014-Sep-18 21:06N 42°21' E 003°42'4 7.8
2014-Sep-18 20:33N 42°16' E 003°41'8 8.0
2014-Sep-18 19:33N 42°08' E 003°39'8 7.8
2014-Sep-18 18:31N 42°00' E 003°38'7 7.4
2014-Sep-18 17:33N 41°55' E 003°32'6 6.4
2014-Sep-18 16:33N 41°50' E 003°26'8 7.2
2014-Sep-18 15:26N 41°45' E 003°18'6 7.2
2014-Sep-18 14:32N 41°40' E 003°12'8 7.2
2014-Sep-18 13:26N 41°35' E 003°04'10 7.7
2014-Sep-18 12:08N 41°28' E 002°54'5 7.5
2014-Sep-18 11:26N 41°25' E 002°48'10 9.6
2014-Sep-18 10:26N 41°19' E 002°38'94 7.7
2014-Sep-17 22:18N 40°21' E 001°01'71 8.0
2014-Sep-17 13:25N 39°38' W 000°13'60 1.6
2014-Sep-16 01:04N 38°46' E 000°25'15 7.8
2014-Sep-15 23:11N 38°32' E 000°19'14 8.7
2014-Sep-15 21:33N 38°20' E 000°09'10 8.5
2014-Sep-15 20:20N 38°11' E 000°02'8 8.6
2014-Sep-15 19:26N 38°05' W 000°04'9 8.7
2014-Sep-15 18:27N 37°58' W 000°10'8 8.7
2014-Sep-15 17:33N 37°51' W 000°15'9 8.7
2014-Sep-15 16:30N 37°44' W 000°22'9 8.9
2014-Sep-15 15:31N 37°36' W 000°28'18 8.8
2014-Sep-15 13:28N 37°24' W 000°44'23810.9
2014-Sep-14 15:34N 35°58' W 005°22'  
Track history (hours):
 
Tides and Currents Weather Stations Pressure Air Temp Water Temp Dewpoint Dewpoint Depression Visibility Wind Speed Wind Dir Waves Ship Positions

Nestor

Last reported at 2014-Sep-19 06:24 UTC. Time now 2014-Sep-19 21:59 UTC.
Position N 43°24' E 003°43'.

Length 88 m; draft 3.8 m.

Type: Ship. MMSI: 305620000.

Date/timePositionNaut miles runAvg speedWind from/ knotsBaromVisibWave heightAir tempDewpointWater temp
2014-Sep-19 06:24N 43°24' E 003°43'4 3.6
2014-Sep-19 05:09N 43°22' E 003°48'51 7.5
2014-Sep-18 22:23N 42°31' E 003°43'10 7.9
2014-Sep-18 21:06N 42°21' E 003°42'4 7.8
2014-Sep-18 20:33N 42°16' E 003°41'8 8.0
2014-Sep-18 19:33N 42°08' E 003°39'8 7.8
2014-Sep-18 18:31N 42°00' E 003°38'7 7.4
2014-Sep-18 17:33N 41°55' E 003°32'6 6.4
2014-Sep-18 16:33N 41°50' E 003°26'8 7.2
2014-Sep-18 15:26N 41°45' E 003°18'6 7.2
2014-Sep-18 14:32N 41°40' E 003°12'8 7.2
2014-Sep-18 13:26N 41°35' E 003°04'10 7.7
2014-Sep-18 12:08N 41°28' E 002°54'5 7.5
2014-Sep-18 11:26N 41°25' E 002°48'10 9.6
2014-Sep-18 10:26N 41°19' E 002°38'94 7.7
2014-Sep-17 22:18N 40°21' E 001°01'71 8.0
2014-Sep-17 13:25N 39°38' W 000°13'60 1.6
2014-Sep-16 01:04N 38°46' E 000°25'15 7.8
2014-Sep-15 23:11N 38°32' E 000°19'14 8.7
2014-Sep-15 21:33N 38°20' E 000°09'10 8.5
2014-Sep-15 20:20N 38°11' E 000°02'8 8.6
2014-Sep-15 19:26N 38°05' W 000°04'9 8.7
2014-Sep-15 18:27N 37°58' W 000°10'8 8.7
2014-Sep-15 17:33N 37°51' W 000°15'9 8.7
2014-Sep-15 16:30N 37°44' W 000°22'9 8.9
2014-Sep-15 15:31N 37°36' W 000°28'18 8.8
2014-Sep-15 13:28N 37°24' W 000°44'23810.9
2014-Sep-14 15:34N 35°58' W 005°22'  

Dump ship's entire track history